Aerial Acres, California
Current Conditions -  °F | °C
As of 11:58 AM on Friday 31 Oct 2014 (Local Time) from KEDW Reporting Station
Broken Clouds Broken Clouds  
Wind Chill: 68°   Ceiling: 25000
Heat Index: 68°   Visibility: 50mi
Dew Point: 43°   Wind: 9mph
Humidity: 40%   Direction: 210°SSW
Pressure: 29.9"   Gusts: NA
Location:  34.931°N, 117.867°W
Report Text: KEDW 311858Z 21008KT 50SM FEW030 BKN250 20/06 A2990 RMK AO2A SLP113 CONTRAILS T02010062
Loading
Personal Weather Stations






























Interactive Weather Map
Tropical Storm Tracking
New forecast layout! Learn more

10-Day Weather Forecast

Advertisements
Track Severe Weather on mobile